createdAt,value
2019-02-14T00:01:16.680Z,7.80
2019-02-14T00:03:48.264Z,7.70
2019-02-14T00:06:19.689Z,7.70
2019-02-14T00:08:52.434Z,7.70
2019-02-14T00:11:23.551Z,7.70
2019-02-14T00:13:54.401Z,7.70
2019-02-14T00:16:26.415Z,7.70
2019-02-14T00:18:58.052Z,7.70
2019-02-14T00:21:31.350Z,7.70
2019-02-14T00:24:02.181Z,7.70
2019-02-14T00:26:33.282Z,7.70
2019-02-14T00:29:04.984Z,7.60
2019-02-14T00:31:36.579Z,7.60
2019-02-14T00:34:08.187Z,7.70
2019-02-14T00:36:42.364Z,7.70
2019-02-14T00:39:14.363Z,7.60
2019-02-14T00:41:47.206Z,7.60
2019-02-14T00:44:19.679Z,7.60
2019-02-14T00:46:51.210Z,7.50
2019-02-14T00:49:24.859Z,7.50
2019-02-14T00:51:57.582Z,7.60
2019-02-14T00:54:32.000Z,7.50
2019-02-14T00:57:06.139Z,7.50
2019-02-14T00:59:39.563Z,7.50
2019-02-14T01:02:11.468Z,7.40
2019-02-14T01:04:43.518Z,7.50
2019-02-14T01:07:15.254Z,7.50
2019-02-14T01:09:46.361Z,7.50
2019-02-14T01:12:18.347Z,7.50
2019-02-14T01:14:49.874Z,7.40
2019-02-14T01:17:20.851Z,7.40
2019-02-14T01:19:52.082Z,7.30
2019-02-14T01:22:23.068Z,7.30
2019-02-14T01:24:56.729Z,7.30
2019-02-14T01:27:28.303Z,7.30
2019-02-14T01:30:03.957Z,7.30
2019-02-14T01:32:34.994Z,7.30
2019-02-14T01:35:09.381Z,7.30
2019-02-14T01:37:41.171Z,7.30
2019-02-14T01:40:14.323Z,7.30
2019-02-14T01:42:47.553Z,7.40
2019-02-14T01:45:18.880Z,7.40
2019-02-14T01:47:49.608Z,7.40
2019-02-14T01:50:22.629Z,7.30
2019-02-14T01:52:58.724Z,7.30
2019-02-14T01:55:29.476Z,7.40
2019-02-14T01:58:01.478Z,7.40
2019-02-14T02:00:33.622Z,7.30
2019-02-14T02:03:05.862Z,7.20
2019-02-14T02:05:38.172Z,7.30
2019-02-14T02:08:10.307Z,7.20
2019-02-14T02:10:42.989Z,7.20
2019-02-14T02:13:17.238Z,7.20
2019-02-14T02:15:50.823Z,7.20
2019-02-14T02:18:22.234Z,7.20
2019-02-14T02:20:54.245Z,7.20
2019-02-14T02:23:25.150Z,7.20
2019-02-14T02:25:56.983Z,7.20
2019-02-14T02:28:28.121Z,7.10
2019-02-14T02:31:00.057Z,7.10
2019-02-14T02:33:33.900Z,7.10
2019-02-14T02:36:05.516Z,7.20
2019-02-14T02:38:37.158Z,7.20
2019-02-14T02:41:08.483Z,7.20
2019-02-14T02:43:39.910Z,7.20
2019-02-14T02:46:11.328Z,7.10
2019-02-14T02:48:43.021Z,7.10
2019-02-14T02:51:13.735Z,7.00
2019-02-14T02:53:45.227Z,7.00
2019-02-14T02:56:18.029Z,7.10
2019-02-14T02:58:50.030Z,7.10
2019-02-14T03:01:20.978Z,7.10
2019-02-14T03:03:52.360Z,7.10
2019-02-14T03:06:24.020Z,7.00
2019-02-14T03:08:56.888Z,7.00
2019-02-14T03:11:28.038Z,7.00
2019-02-14T03:13:59.769Z,7.10
2019-02-14T03:16:31.776Z,7.00
2019-02-14T03:19:03.207Z,7.00
2019-02-14T03:21:34.404Z,7.00
2019-02-14T03:24:05.088Z,7.20
2019-02-14T03:26:35.697Z,7.10
2019-02-14T03:29:07.694Z,7.00
2019-02-14T03:31:39.458Z,7.10
2019-02-14T03:34:13.236Z,7.00
2019-02-14T03:36:44.727Z,7.00
2019-02-14T03:39:15.880Z,7.00
2019-02-14T03:41:46.907Z,7.00
2019-02-14T03:44:19.696Z,7.00
2019-02-14T03:46:50.574Z,6.90
2019-02-14T03:49:21.668Z,7.00
2019-02-14T03:51:52.119Z,7.00
2019-02-14T03:54:23.615Z,7.00
2019-02-14T03:56:55.317Z,6.90
2019-02-14T03:59:26.706Z,6.80
2019-02-14T04:01:58.122Z,6.80
2019-02-14T04:04:30.660Z,6.90
2019-02-14T04:07:02.809Z,6.90
2019-02-14T04:09:35.860Z,6.90
2019-02-14T04:12:07.586Z,6.90
2019-02-14T04:14:39.453Z,6.80
2019-02-14T04:17:11.296Z,6.80
2019-02-14T04:19:42.872Z,6.70
2019-02-14T04:22:14.379Z,6.70
2019-02-14T04:24:46.483Z,6.70
2019-02-14T04:27:18.508Z,6.70
2019-02-14T04:29:49.753Z,6.80
2019-02-14T04:32:20.555Z,6.70
2019-02-14T04:34:52.109Z,6.80
2019-02-14T04:37:23.547Z,6.70
2019-02-14T04:39:55.276Z,6.70
2019-02-14T04:42:28.617Z,6.70
2019-02-14T04:45:00.614Z,6.70
2019-02-14T04:47:32.203Z,6.70
2019-02-14T04:50:03.903Z,6.60
2019-02-14T04:52:36.505Z,6.60
2019-02-14T04:55:12.910Z,6.50
2019-02-14T04:57:43.988Z,6.50
2019-02-14T05:00:16.381Z,6.50
2019-02-14T05:02:47.410Z,6.60
2019-02-14T05:05:17.799Z,6.60
2019-02-14T05:07:50.261Z,6.50
2019-02-14T05:10:21.853Z,6.50
2019-02-14T05:12:52.936Z,6.50
2019-02-14T05:15:24.879Z,6.50
2019-02-14T05:17:56.626Z,6.50
2019-02-14T05:20:27.743Z,6.50
2019-02-14T05:22:58.531Z,6.50
2019-02-14T05:25:30.186Z,6.50
2019-02-14T05:28:02.542Z,6.50
2019-02-14T05:30:35.086Z,6.50
2019-02-14T05:33:06.881Z,6.50
2019-02-14T05:35:37.986Z,6.50
2019-02-14T05:38:10.249Z,6.40
2019-02-14T05:40:41.310Z,6.40
2019-02-14T05:43:13.926Z,6.30
2019-02-14T05:45:47.020Z,6.30
2019-02-14T05:48:18.660Z,6.30
2019-02-14T05:50:51.432Z,6.30
2019-02-14T05:53:25.432Z,6.30
2019-02-14T05:55:57.578Z,6.30
2019-02-14T05:58:28.752Z,6.30
2019-02-14T06:01:00.193Z,6.20
2019-02-14T06:03:32.285Z,6.20
2019-02-14T06:06:05.432Z,6.20
2019-02-14T06:08:36.537Z,6.20
2019-02-14T06:11:10.243Z,6.20
2019-02-14T06:13:42.184Z,6.20
2019-02-14T06:16:13.116Z,6.30
2019-02-14T06:18:44.340Z,6.30
2019-02-14T06:21:15.934Z,6.30
2019-02-14T06:23:47.079Z,6.20
2019-02-14T06:26:19.442Z,6.10
2019-02-14T06:28:50.801Z,6.10
2019-02-14T06:31:21.907Z,6.10
2019-02-14T06:33:52.980Z,6.20
2019-02-14T06:36:24.694Z,6.10
2019-02-14T06:38:58.064Z,6.10
2019-02-14T06:41:30.966Z,6.20
2019-02-14T06:44:06.285Z,6.20
2019-02-14T06:46:38.671Z,6.10
2019-02-14T06:49:11.706Z,6.10
2019-02-14T06:51:42.878Z,6.10
2019-02-14T06:54:16.729Z,6.10
2019-02-14T06:56:47.698Z,6.10
2019-02-14T06:59:19.583Z,6.20
2019-02-14T07:01:50.864Z,6.30
2019-02-14T07:04:21.663Z,6.20
2019-02-14T07:06:53.768Z,6.20
2019-02-14T07:09:24.607Z,6.10
2019-02-14T07:11:56.655Z,6.10
2019-02-14T07:14:27.830Z,6.20
2019-02-14T07:17:00.009Z,6.20
2019-02-14T07:19:32.696Z,6.20
2019-02-14T07:22:04.142Z,6.20
2019-02-14T07:24:36.361Z,6.10
2019-02-14T07:27:07.387Z,6.10
2019-02-14T07:29:39.411Z,6.10
2019-02-14T07:32:11.215Z,6.00
2019-02-14T07:34:41.962Z,6.10
2019-02-14T07:37:14.766Z,6.10
2019-02-14T07:39:46.325Z,6.10
2019-02-14T07:42:16.874Z,6.10
2019-02-14T07:44:48.250Z,6.10
2019-02-14T07:47:19.636Z,6.00
2019-02-14T07:49:50.260Z,6.00
2019-02-14T07:52:25.158Z,6.10
2019-02-14T07:55:01.196Z,6.10
2019-02-14T07:57:38.448Z,6.20
2019-02-14T08:00:14.583Z,6.10
2019-02-14T08:02:46.037Z,6.10
2019-02-14T08:05:17.023Z,6.10
2019-02-14T08:07:47.573Z,6.10
2019-02-14T08:10:19.600Z,6.10
2019-02-14T08:12:52.418Z,6.00
2019-02-14T08:15:23.827Z,6.00
2019-02-14T08:17:55.958Z,6.00
2019-02-14T08:20:27.138Z,6.00
2019-02-14T08:22:59.347Z,6.10
2019-02-14T08:25:30.298Z,6.10
2019-02-14T08:28:01.723Z,6.20
2019-02-14T08:30:32.292Z,6.20
2019-02-14T08:33:02.604Z,6.10
2019-02-14T08:35:33.597Z,6.20
2019-02-14T08:38:05.241Z,6.20
2019-02-14T08:40:37.452Z,6.20
2019-02-14T08:43:08.589Z,6.20
2019-02-14T08:45:39.820Z,6.20
2019-02-14T08:48:11.610Z,6.20
2019-02-14T08:50:42.366Z,6.20
2019-02-14T08:53:13.224Z,6.20
2019-02-14T08:55:44.685Z,6.20
2019-02-14T08:58:16.737Z,6.20
2019-02-14T09:00:49.555Z,6.30
2019-02-14T09:03:21.136Z,6.10
2019-02-14T09:05:52.054Z,6.10
2019-02-14T09:08:23.393Z,6.10
2019-02-14T09:10:54.250Z,6.20
2019-02-14T09:13:26.185Z,6.20
2019-02-14T09:15:56.887Z,6.30
2019-02-14T09:18:28.108Z,6.30
2019-02-14T09:20:59.161Z,6.20
2019-02-14T09:23:31.283Z,6.30
2019-02-14T09:26:02.539Z,6.40
2019-02-14T09:28:34.847Z,6.50
2019-02-14T09:31:05.939Z,6.50
2019-02-14T09:33:38.529Z,6.50
2019-02-14T09:36:09.747Z,6.50
2019-02-14T09:38:41.232Z,6.60
2019-02-14T09:41:12.152Z,6.50
2019-02-14T09:43:44.932Z,6.50
2019-02-14T09:46:16.446Z,6.60
2019-02-14T09:48:48.360Z,6.60
2019-02-14T09:51:19.312Z,6.60
2019-02-14T09:53:50.384Z,6.80
2019-02-14T09:56:25.861Z,6.90
2019-02-14T09:58:58.334Z,6.90
2019-02-14T10:01:29.709Z,7.10
2019-02-14T10:04:00.374Z,7.10
2019-02-14T10:06:36.596Z,7.10
2019-02-14T10:09:06.073Z,7.10
2019-02-14T10:11:37.192Z,7.20
2019-02-14T10:14:09.796Z,7.20
2019-02-14T10:16:41.908Z,7.20
2019-02-14T10:19:12.850Z,7.30
2019-02-14T10:21:43.897Z,7.40
2019-02-14T10:24:14.849Z,7.40
2019-02-14T10:26:46.659Z,7.40
2019-02-14T10:29:18.034Z,7.50
2019-02-14T10:31:49.317Z,7.40
2019-02-14T10:34:20.716Z,7.60
2019-02-14T10:36:52.391Z,7.70
2019-02-14T10:39:24.061Z,7.80
2019-02-14T10:41:54.962Z,7.90
2019-02-14T10:44:25.948Z,7.90
2019-02-14T10:46:57.729Z,7.80
2019-02-14T10:49:28.423Z,7.90
2019-02-14T10:51:59.164Z,7.90
2019-02-14T10:54:30.306Z,7.90
2019-02-14T10:57:02.850Z,8.10
2019-02-14T10:59:34.943Z,8.20
2019-02-14T11:02:10.617Z,8.30
2019-02-14T11:04:43.433Z,8.40
2019-02-14T11:07:17.550Z,8.40
2019-02-14T11:09:49.958Z,8.30
2019-02-14T11:12:21.793Z,8.40
2019-02-14T11:14:53.308Z,8.40
2019-02-14T11:17:24.214Z,8.50
2019-02-14T11:19:54.719Z,8.60
2019-02-14T11:22:25.611Z,8.80
2019-02-14T11:24:56.127Z,9.20
2019-02-14T11:27:26.999Z,9.50
2019-02-14T11:29:58.280Z,9.80
2019-02-14T11:32:28.993Z,10.00
2019-02-14T11:34:59.737Z,10.30
2019-02-14T11:37:31.437Z,10.60
2019-02-14T11:40:04.272Z,10.80
2019-02-14T11:42:35.124Z,10.90
2019-02-14T11:45:10.545Z,10.80
2019-02-14T11:47:42.488Z,10.60
2019-02-14T11:50:14.738Z,10.50
2019-02-14T11:52:46.306Z,10.70
2019-02-14T11:55:18.843Z,10.70
2019-02-14T11:57:51.763Z,10.70
2019-02-14T12:00:26.791Z,10.80
2019-02-14T12:02:59.418Z,10.90
2019-02-14T12:05:32.464Z,11.00
2019-02-14T12:08:06.900Z,10.90
2019-02-14T12:10:42.809Z,10.90
2019-02-14T12:13:17.971Z,10.90
2019-02-14T12:15:53.091Z,11.00
2019-02-14T12:18:29.873Z,11.10
2019-02-14T12:21:04.144Z,11.20
2019-02-14T12:23:41.606Z,11.20
2019-02-14T12:26:21.764Z,11.20
2019-02-14T12:28:54.767Z,11.10
2019-02-14T12:31:29.211Z,11.10
2019-02-14T12:34:04.327Z,11.10
2019-02-14T12:36:38.610Z,11.10
2019-02-14T12:39:12.537Z,11.10
2019-02-14T12:41:46.395Z,11.20
2019-02-14T12:44:24.414Z,11.20
2019-02-14T12:46:59.357Z,11.10
2019-02-14T12:49:36.232Z,11.10
2019-02-14T12:52:09.992Z,10.80
2019-02-14T12:54:42.390Z,10.70
2019-02-14T12:57:16.611Z,10.70
2019-02-14T12:59:52.431Z,10.80
2019-02-14T13:02:26.600Z,10.70
2019-02-14T13:05:03.058Z,10.70
2019-02-14T13:07:37.219Z,10.70
2019-02-14T13:10:19.676Z,10.80
2019-02-14T13:12:57.449Z,10.80
2019-02-14T13:15:39.652Z,10.80
2019-02-14T13:18:16.734Z,10.70
2019-02-14T13:20:58.248Z,10.70
2019-02-14T13:23:34.615Z,10.70
2019-02-14T13:26:17.468Z,10.80
2019-02-14T13:28:58.254Z,10.70
2019-02-14T13:31:31.845Z,10.80
2019-02-14T13:34:07.036Z,10.80
2019-02-14T13:36:45.675Z,10.80
2019-02-14T13:39:29.329Z,10.70
2019-02-14T13:41:57.309Z,10.70
2019-02-14T13:44:34.232Z,10.50
2019-02-14T13:47:07.615Z,10.50
2019-02-14T13:49:38.337Z,10.50
2019-02-14T13:52:09.421Z,10.60
2019-02-14T13:54:40.841Z,10.60
2019-02-14T13:57:11.922Z,10.60
2019-02-14T13:59:49.029Z,10.60
2019-02-14T14:02:25.456Z,10.50
2019-02-14T14:05:02.345Z,10.50
2019-02-14T14:07:40.699Z,10.50
2019-02-14T14:10:21.962Z,10.40
2019-02-14T14:12:55.078Z,10.40
2019-02-14T14:15:26.143Z,10.40
2019-02-14T14:17:57.167Z,10.30
2019-02-14T14:20:31.041Z,10.30
2019-02-14T14:23:02.417Z,10.30
2019-02-14T14:25:36.073Z,10.30
2019-02-14T14:28:09.646Z,10.20
2019-02-14T14:30:40.845Z,10.20
2019-02-14T14:33:14.507Z,10.20
2019-02-14T14:35:51.499Z,10.20
2019-02-14T14:38:22.629Z,10.20
2019-02-14T14:40:54.279Z,10.10
2019-02-14T14:43:30.517Z,10.10
2019-02-14T14:46:10.058Z,10.10
2019-02-14T14:48:43.796Z,10.00
2019-02-14T14:51:18.956Z,10.00
2019-02-14T14:53:51.835Z,9.90
2019-02-14T14:56:23.951Z,9.80
2019-02-14T14:58:55.846Z,9.80
2019-02-14T15:01:28.993Z,9.80
2019-02-14T15:04:01.997Z,9.90
2019-02-14T15:06:34.104Z,9.80
2019-02-14T15:09:07.066Z,9.70
2019-02-14T15:11:38.975Z,9.70
2019-02-14T15:14:13.613Z,9.70
2019-02-14T15:16:46.172Z,9.70
2019-02-14T15:19:19.712Z,9.60
2019-02-14T15:22:00.838Z,9.60
2019-02-14T15:24:36.838Z,9.50
2019-02-14T15:27:07.877Z,9.50
2019-02-14T15:29:40.221Z,9.40
2019-02-14T15:32:12.611Z,9.40
2019-02-14T15:34:45.741Z,9.40
2019-02-14T15:37:19.691Z,9.30
2019-02-14T15:39:52.388Z,9.30
2019-02-14T15:42:25.249Z,9.20
2019-02-14T15:44:57.128Z,9.20
2019-02-14T15:47:31.363Z,9.20
2019-02-14T15:50:05.634Z,9.20
2019-02-14T15:52:35.346Z,9.00
2019-02-14T15:55:07.376Z,8.90
2019-02-14T15:57:42.880Z,8.90
2019-02-14T16:00:15.981Z,8.80
2019-02-14T16:02:47.952Z,8.70
2019-02-14T16:05:19.121Z,8.60
2019-02-14T16:07:50.040Z,8.50
2019-02-14T16:10:21.325Z,8.50
2019-02-14T16:12:52.952Z,8.60
2019-02-14T16:15:24.099Z,8.50
2019-02-14T16:17:56.471Z,8.50
2019-02-14T16:20:27.637Z,8.30
2019-02-14T16:23:08.636Z,8.20
2019-02-14T16:25:40.165Z,8.10
2019-02-14T16:28:11.576Z,8.00
2019-02-14T16:30:45.882Z,8.00
2019-02-14T16:33:17.131Z,8.00
2019-02-14T16:35:48.300Z,7.80
2019-02-14T16:38:22.765Z,7.80
2019-02-14T16:40:53.266Z,7.70
2019-02-14T16:43:25.906Z,7.70
2019-02-14T16:45:58.601Z,7.70
2019-02-14T16:48:30.287Z,7.70
2019-02-14T16:51:01.380Z,7.70
2019-02-14T16:53:33.007Z,7.60
2019-02-14T16:56:04.498Z,7.50
2019-02-14T16:58:37.460Z,7.40
2019-02-14T17:01:08.791Z,7.40
2019-02-14T17:03:40.109Z,7.30
2019-02-14T17:06:12.151Z,7.30
2019-02-14T17:08:44.622Z,7.30
2019-02-14T17:11:17.785Z,7.30
2019-02-14T17:13:52.579Z,7.20
2019-02-14T17:16:33.668Z,7.20
2019-02-14T17:19:05.383Z,7.20
2019-02-14T17:21:36.905Z,7.00
2019-02-14T17:24:09.838Z,7.00
2019-02-14T17:26:42.793Z,7.00
2019-02-14T17:29:15.032Z,6.90
2019-02-14T17:31:49.304Z,6.80
2019-02-14T17:34:20.463Z,6.80
2019-02-14T17:36:51.832Z,6.70
2019-02-14T17:39:23.277Z,6.70
2019-02-14T17:41:55.827Z,6.70
2019-02-14T17:44:27.616Z,6.70
2019-02-14T17:46:59.798Z,6.70
2019-02-14T17:49:34.493Z,6.70
2019-02-14T17:52:06.865Z,6.80
2019-02-14T17:54:39.289Z,6.70
2019-02-14T17:57:12.574Z,6.60
2019-02-14T17:59:46.341Z,6.60
2019-02-14T18:02:19.154Z,6.60
2019-02-14T18:04:50.480Z,6.60
2019-02-14T18:07:24.286Z,6.60
2019-02-14T18:09:56.447Z,6.50
2019-02-14T18:12:28.750Z,6.40
2019-02-14T18:15:01.066Z,6.40
2019-02-14T18:17:32.656Z,6.40
2019-02-14T18:20:03.683Z,6.40
2019-02-14T18:22:34.963Z,6.30
2019-02-14T18:25:11.564Z,6.30
2019-02-14T18:27:44.014Z,6.30
2019-02-14T18:30:16.139Z,6.30
2019-02-14T18:32:49.588Z,6.20
2019-02-14T18:35:21.557Z,6.10
2019-02-14T18:37:52.605Z,6.20
2019-02-14T18:40:25.135Z,6.20
2019-02-14T18:42:57.414Z,6.10
2019-02-14T18:45:31.032Z,6.10
2019-02-14T18:48:03.885Z,6.10
2019-02-14T18:50:38.375Z,6.10
2019-02-14T18:53:11.457Z,6.10
2019-02-14T18:55:42.489Z,6.00
2019-02-14T18:58:13.775Z,6.10
2019-02-14T19:00:45.926Z,6.10
2019-02-14T19:03:19.990Z,6.00
2019-02-14T19:05:52.241Z,6.00
2019-02-14T19:08:23.725Z,6.00
2019-02-14T19:10:55.556Z,6.00
2019-02-14T19:13:26.995Z,5.90
2019-02-14T19:15:59.274Z,5.90
2019-02-14T19:18:32.243Z,5.90
2019-02-14T19:21:05.235Z,5.80
2019-02-14T19:23:36.835Z,5.90
2019-02-14T19:26:08.950Z,5.80
2019-02-14T19:28:40.730Z,5.80
2019-02-14T19:31:14.581Z,5.80
2019-02-14T19:33:46.234Z,5.80
2019-02-14T19:36:17.240Z,5.80
2019-02-14T19:38:48.490Z,5.70
2019-02-14T19:41:25.408Z,5.70
2019-02-14T19:43:56.193Z,5.60
2019-02-14T19:46:28.062Z,5.70
2019-02-14T19:49:01.081Z,5.70
2019-02-14T19:51:32.834Z,5.60
2019-02-14T19:54:03.884Z,5.60
2019-02-14T19:56:36.014Z,5.60
2019-02-14T19:59:08.124Z,5.60
2019-02-14T20:01:41.903Z,5.50
2019-02-14T20:04:13.268Z,5.40
2019-02-14T20:06:46.292Z,5.50
2019-02-14T20:09:17.818Z,5.50
2019-02-14T20:11:53.929Z,5.40
2019-02-14T20:14:26.988Z,5.40
2019-02-14T20:17:00.799Z,5.40
2019-02-14T20:19:33.039Z,5.40
2019-02-14T20:22:06.793Z,5.30
2019-02-14T20:24:38.345Z,5.20
2019-02-14T20:27:11.137Z,5.20
2019-02-14T20:29:44.388Z,5.30
2019-02-14T20:32:18.776Z,5.30
2019-02-14T20:38:14.387Z,5.20
2019-02-14T20:40:46.505Z,5.20
2019-02-14T20:43:20.770Z,5.20
2019-02-14T20:45:52.267Z,5.10
2019-02-14T20:48:24.818Z,5.10
2019-02-14T20:50:57.709Z,5.10
2019-02-14T20:53:30.737Z,5.00
2019-02-14T20:56:02.719Z,5.10
2019-02-14T20:58:35.466Z,5.00
2019-02-14T21:01:08.732Z,5.00
2019-02-14T21:03:40.086Z,5.00
2019-02-14T21:06:12.802Z,5.00
2019-02-14T21:08:45.850Z,4.90
2019-02-14T21:11:20.069Z,4.80
2019-02-14T21:13:52.120Z,4.80
2019-02-14T21:16:24.532Z,4.80
2019-02-14T21:18:57.562Z,4.80
2019-02-14T21:21:29.388Z,4.80
2019-02-14T21:24:02.087Z,4.80
2019-02-14T21:26:35.198Z,4.70
2019-02-14T21:29:09.412Z,4.60
2019-02-14T21:31:41.401Z,4.50
2019-02-14T21:34:14.118Z,4.50
2019-02-14T21:36:46.761Z,4.40
2019-02-14T21:39:21.913Z,4.40
2019-02-14T21:42:17.389Z,4.40
2019-02-14T21:44:32.466Z,4.30
2019-02-14T21:47:10.469Z,4.30
2019-02-14T21:49:47.372Z,4.20
2019-02-14T21:52:21.489Z,4.20
2019-02-14T21:54:53.848Z,4.30
2019-02-14T21:57:26.607Z,4.20
2019-02-14T21:59:58.987Z,4.20
2019-02-14T22:02:31.044Z,4.10
2019-02-14T22:05:05.141Z,4.00
2019-02-14T22:07:39.185Z,4.10
2019-02-14T22:10:15.568Z,4.10
2019-02-14T22:12:49.635Z,4.10
2019-02-14T22:15:24.542Z,4.10
2019-02-14T22:17:56.393Z,4.10
2019-02-14T22:20:28.395Z,4.10
2019-02-14T22:22:59.547Z,4.10
2019-02-14T22:25:32.840Z,4.20
2019-02-14T22:28:04.513Z,4.20
2019-02-14T22:30:35.811Z,4.10
2019-02-14T22:33:08.159Z,4.00
2019-02-14T22:35:42.299Z,4.00
2019-02-14T22:38:13.471Z,3.90
2019-02-14T22:40:45.445Z,3.90
2019-02-14T22:43:17.355Z,3.70
2019-02-14T22:45:49.022Z,3.70
2019-02-14T22:48:21.629Z,3.70
2019-02-14T22:50:54.579Z,3.70
2019-02-14T22:53:25.499Z,3.60
2019-02-14T22:55:57.181Z,3.60
2019-02-14T22:58:28.921Z,3.50
2019-02-14T23:01:02.284Z,3.60
2019-02-14T23:03:34.532Z,3.60
2019-02-14T23:06:07.188Z,3.60
2019-02-14T23:08:39.756Z,3.60
2019-02-14T23:11:13.623Z,3.60
2019-02-14T23:13:47.754Z,3.60
2019-02-14T23:16:21.369Z,3.60
2019-02-14T23:18:57.789Z,3.60
2019-02-14T23:21:33.004Z,3.60
2019-02-14T23:24:05.787Z,3.60
2019-02-14T23:26:38.015Z,3.60
2019-02-14T23:29:11.568Z,3.50
2019-02-14T23:31:45.748Z,3.40
2019-02-14T23:34:19.011Z,3.40
2019-02-14T23:36:51.348Z,3.30
2019-02-14T23:39:25.410Z,3.30
2019-02-14T23:42:02.240Z,3.20
2019-02-14T23:44:37.818Z,3.20
2019-02-14T23:47:10.960Z,3.20
2019-02-14T23:49:42.674Z,3.20
2019-02-14T23:52:14.218Z,3.10
2019-02-14T23:54:46.756Z,3.20
2019-02-14T23:57:19.796Z,3.20
2019-02-14T23:59:51.112Z,3.20
